Tiempo atmosférico en la estación meteorológica de Gaucín, Málaga (545 m.)



Fecha
DESCASC
Temp. máxima en grados centígrados (hora)
DESCASC
Temp. mínima en grados centígrados (hora)
DESCASC
Temp. media en grados centígrados
DESCASC
Racha de viento máxima en m/sg (hora)
DESCASC
Velocidad máxima media en intervalos de 10 minutos(hora)
DESCASC
Precipitaciones diarias en mm
DESCASC
Precipitaciones de 00:00 a 06:00 en mm
DESCASC
Precipitaciones de 06:00 a 12:00 en mm
DESCASC
Precipitaciones de 12:00 a 18:00 en mm
DESCASC
Precipitaciones de 18:00 a 24:00 en mm
DESCASC
18-01-2018 14.1 (16:10) 9.9 (08:10) 12 11.39 (11:50) 4.17 (09:10) 0 0 0 0 0
17-01-2018 19.7 (14:10) 6 (06:10) 12.9 8.61 (08:10) 4.72 (06:50) 0 0 0 0 0
16-01-2018 14 (16:50) 1.5 (07:30) 7.8 7.5 (23:00) 5 (23:00) 0 0 0 0 0
15-01-2018 12 (14:10) 2.4 (05:20) 7.2 7.5 (04:20) 3.33 (05:50) 0 0 0 0 0
14-01-2018 8.2 (16:10) 3.5 (00:00) 5.8 7.78 (01:50) 2.78 (19:30) 4.6 0 3 1.6 0
13-01-2018 9 (17:20) 5.1 (00:00) 7 10.83 (18:10) 3.89 (14:50) 2.6 0 0 2.6 0
12-01-2018 12.3 (16:10) 3 (00:00) 7.7 5.28 (14:20) 3.33 (08:50) 0 0 0 0 0
11-01-2018 9.4 (15:40) 4.4 (00:00) 6.9 13.06 (12:30) 4.17 (11:10) 0 0 0 0 0
10-01-2018 12.7 (14:10) 8.3 (00:00) 10.5 11.11 (22:20) 3.89 (09:50) 11.6 10.8 0.2 0.4 0.2
09-01-2018 8.4 (20:30) 0.1 (00:00) 4.2 7.78 (20:50) 3.61 (20:50) 9.8 0.2 0 5.4 4.2
08-01-2018 5.6 (16:50) 1.7 (00:00) 3.6 11.67 (09:20) 5.56 (09:40) 21.4 0 21.2 0.2 0
07-01-2018 7.1 (14:20) 0.3 (00:00) 3.7 8.06 (08:50) 4.72 (09:00) 0 0 0 0 0
06-01-2018 9.6 (00:00) 3.1 (00:00) 6.4 12.78 (03:40) 7.5 (08:40) 22.8 14.6 8.2 0 0
05-01-2018 12.8 (14:40) 8.9 (00:00) 10.8 11.67 (01:10) 7.22 (01:10) 0 0 0 0 0
04-01-2018 18 (13:50) 7.8 (05:20) 12.9 11.67 (20:20) 7.5 (20:10) 0 0 0 0 0
03-01-2018 18.4 (16:40) 7.3 (00:00) 12.8 10.83 (19:30) 6.39 (19:30) 0 0 0 0 0
02-01-2018 18.4 (14:40) 6.9 (00:00) 12.6 9.17 (20:50) 4.17 (23:30) 0 0 0 0 0
01-01-2018 18 (15:10) 6.2 (00:00) 12.1 9.44 (02:20) 5.56 (02:20) 0 0 0 0 0
31-12-2017 14.2 (14:20) 9.2 (00:00) 11.7 11.94 (20:20) 3.89 (07:10) 0 0 0 0 0
30-12-2017 19.2 (16:00) 8.4 (00:00) 13.8 6.67 (00:30) 4.17 (00:10) 0 0 0 0 0
29-12-2017 14.7 (15:30) 10.3 (00:00) 12.5 10 (00:10) 5.28 (22:30) 1.2 0.4 0.8 0 0
28-12-2017 12.2 (20:00) 9.2 (00:00) 10.7 11.39 (21:20) 5 (10:00) 14.4 1.6 5 6.2 1.6
27-12-2017 11.9 (09:30) 9.5 (00:00) 10.7 17.22 (10:30) 5.83 (06:40) 6.6 1 5.4 0.2 0
26-12-2017 11.7 (12:20) 7.9 (00:00) 9.8 12.22 (16:20) 5.83 (16:20) 7.2 1.8 5.4 0 0
25-12-2017 10.1 (13:40) 8.2 (00:00) 9.2 8.61 (23:50) 3.61 (14:00) 8.4 0 0.2 2.4 5.8
24-12-2017 13.7 (15:20) 8.5 (00:00) 11.1 6.11 (04:40) 2.22 (10:40) 0 0 0 0 0

Gráficas

Temp. máximas Temp. mínimas Temp. medias Precipitaciones Rachas de viento máximas Velocidades máximas media en intervalos de 10 minutos

Datos horarios

Fecha y hora oficial Temperatura (ºC) Velocidad del viento (km/h) Dirección del viento Racha (km/h) Dirección de racha Precipitación (mm) Presión (hPa) Tendencia (hPa) Humedad (%)
2018-01-22 23:00:00 11.9 9 Norte 15 Norte 0 -- -- 63
2018-01-22 22:00:00 13 5 Norte 14 Norte 0 -- -- 60
2018-01-22 21:00:00 13.4 9 Nordeste 17 Nordeste 0 -- -- 58
2018-01-22 20:00:00 14.4 9 Norte 19 Norte 0 -- -- 57
2018-01-22 19:00:00 15.4 8 Norte 15 Norte 0 -- -- 56
2018-01-22 18:00:00 18.6 2 Sudoeste 10 Sudoeste 0 -- -- 61
2018-01-22 17:00:00 19.7 6 Sudoeste 13 Sudoeste 0 -- -- 58
2018-01-22 16:00:00 19.9 8 Sudoeste 17 Sudoeste 0 -- -- 58
2018-01-22 15:00:00 19.9 6 Sudoeste 15 Sudoeste 0 -- -- 53
2018-01-22 14:00:00 19.9 6 Sudoeste 15 Norte 0 -- -- 50
2018-01-22 13:00:00 18.4 7 Norte 17 Norte 0 -- -- 47
2018-01-22 12:00:00 15.6 7 Norte 14 Nordeste 0 -- -- 56
2018-01-22 11:00:00 13.3 10 Nordeste 16 Norte 0 -- -- 61
2018-01-22 10:00:00 8.9 12 Nordeste 19 Nordeste 0 -- -- 76
2018-01-22 09:00:00 8.1 10 Norte 18 Norte 0 -- -- 78
2018-01-22 08:00:00 8.7 13 Nordeste 19 Norte 0 -- -- 76
2018-01-22 07:00:00 9.5 12 Norte 21 Norte 0 -- -- 73
2018-01-22 06:00:00 9.5 10 Norte 20 Norte 0 -- -- 75
2018-01-22 05:00:00 8.6 9 Nordeste 24 Oeste 0 -- -- 81
2018-01-22 04:00:00 8.7 9 Norte 25 Norte 0 -- -- 81
2018-01-22 03:00:00 9.7 6 Norte 18 Norte 0 -- -- 78
2018-01-22 02:00:00 9.9 7 Nordeste 15 Nordeste 0 -- -- 77
2018-01-22 01:00:00 9.6 7 Nordeste 31 Norte 0 -- -- 79
2018-01-22 00:00:00 10.1 20 Norte 32 Norte 0 -- -- 77
2018-01-21 23:00:00 9.5 12 Norte 26 Norte 0 -- -- 80
2018-01-21 22:00:00 10.4 9 Norte 26 Noroeste 0 -- -- 78
2018-01-21 21:00:00 10.8 8 Norte 22 Norte 0 -- -- 77
2018-01-21 20:00:00 11.5 9 Norte 22 Norte 0 -- -- 74
2018-01-21 19:00:00 12.7 7 Norte 17 Nordeste 0 -- -- 69
2018-01-21 18:00:00 15.2 6 Norte 22 Norte 0 -- -- 60
2018-01-21 17:00:00 16.9 12 Norte 21 Norte 0 -- -- 55
2018-01-21 16:00:00 18 14 Norte 22 Norte 0 -- -- 51
2018-01-21 15:00:00 18.8 9 Norte 26 Noroeste 0 -- -- 46
2018-01-21 14:00:00 19.2 6 Norte 24 Norte 0 -- -- 46
2018-01-21 13:00:00 18.1 8 Norte 21 Norte 0 -- -- 49
2018-01-21 12:00:00 16.3 4 Noroeste 19 Norte 0 -- -- 52
2018-01-21 11:00:00 14.3 5 Nordeste 18 Noroeste 0 -- -- 51
2018-01-21 10:00:00 10.4 9 Nordeste 18 Nordeste 0 -- -- 57
2018-01-21 09:00:00 10.1 6 Nordeste 17 Nordeste 0 -- -- 55
2018-01-21 08:00:00 10.3 5 Este 19 Este 0 -- -- 53
2018-01-21 07:00:00 10.1 8 Nordeste 15 Norte 0 -- -- 52
2018-01-21 06:00:00 10.2 8 Nordeste 16 Este 0 -- -- 51
2018-01-21 05:00:00 9.3 5 Norte 15 Norte 0 -- -- 53
2018-01-21 04:00:00 10.1 6 Nordeste 14 Noroeste 0 -- -- 49
2018-01-21 03:00:00 9.9 8 Nordeste 11 Norte 0 -- -- 51
2018-01-21 02:00:00 9.8 6 Nordeste 10 Nordeste 0 -- -- 56
2018-01-21 01:00:00 9.3 6 Nordeste 15 Nordeste 0 -- -- 64
2018-01-21 00:00:00 9.2 8 Nordeste 23 Norte 0 -- -- 71
2018-01-20 23:00:00 9.7 13 Norte 26 Norte 0 -- -- 70
2018-01-20 22:00:00 10.5 8 Norte 15 Norte 0 -- -- 66
2018-01-20 21:00:00 10.5 8 Nordeste 14 Norte 0 -- -- 67
2018-01-20 20:00:00 10.6 9 Norte 17 Norte 0 -- -- 70
2018-01-20 19:00:00 11.6 9 Norte 21 Noroeste 0 -- -- 67
2018-01-20 18:00:00 12.9 10 Norte 21 Norte 0 -- -- 61
2018-01-20 17:00:00 15.9 9 Noroeste 18 Norte 0 -- -- 52
2018-01-20 16:00:00 16.9 9 Norte 17 Norte 0 -- -- 49
2018-01-20 15:00:00 17.3 6 Norte 17 Norte 0 -- -- 47
2018-01-20 14:00:00 16.4 8 Noroeste 17 Norte 0 -- -- 48
2018-01-20 13:00:00 14.9 6 Norte 15 Norte 0 -- -- 54
2018-01-20 12:00:00 12.7 9 Norte 15 Nordeste 0 -- -- 61
2018-01-20 11:00:00 10.5 8 Norte 17 Nordeste 0 -- -- 68
2018-01-20 10:00:00 7.6 12 Nordeste 23 Norte 0 -- -- 79
2018-01-20 09:00:00 7.1 12 Norte 22 Norte 0 -- -- 82
2018-01-20 08:00:00 7 10 Norte 17 Norte 0 -- -- 76
2018-01-20 07:00:00 7.2 12 Nordeste 15 Nordeste 0 -- -- 77
2018-01-20 06:00:00 7.4 9 Nordeste 14 Norte 0 -- -- 77
2018-01-20 05:00:00 7.8 7 Norte 15 Nordeste 0 -- -- 76
2018-01-20 04:00:00 8.3 8 Nordeste 15 Norte 0 -- -- 75
2018-01-20 03:00:00 7.6 7 Nordeste 15 Nordeste 0 -- -- 79
2018-01-20 02:00:00 8.1 7 Nordeste 17 Nordeste 0 -- -- 76
2018-01-20 01:00:00 9.8 5 Nordeste 12 Noroeste 0 -- -- 69
2018-01-20 00:00:00 10 5 Nordeste 13 Norte 0 -- -- 68
2018-01-19 23:00:00 10.2 4 Norte 18 Este 0 -- -- 67
2018-01-19 22:00:00 9.3 6 Nordeste 15 Norte 0 -- -- 77
2018-01-19 21:00:00 9.2 8 Nordeste 19 Nordeste 0 -- -- 79
2018-01-19 20:00:00 10.2 13 Norte 21 Norte 0 -- -- 73
2018-01-19 19:00:00 11 10 Norte 19 Norte 0 -- -- 70
2018-01-19 18:00:00 13.6 5 Noroeste 22 Norte 0 -- -- 61
2018-01-19 17:00:00 14.7 7 Norte 19 Norte 0 -- -- 58
2018-01-19 16:00:00 15.3 6 Noroeste 19 Noroeste 0 -- -- 55
2018-01-19 15:00:00 15.3 8 Sudoeste 16 Sudoeste 0 -- -- 59
2018-01-19 14:00:00 14.9 6 Sudoeste 15 Sur 0 -- -- 59
2018-01-19 13:00:00 12.4 5 Norte 11 Norte 0 -- -- 64
2018-01-19 12:00:00 11 6 Norte 9 Norte 0 -- -- 64
2018-01-19 11:00:00 9.4 8 Norte 14 Norte 0 -- -- 65
2018-01-19 10:00:00 8.5 9 Norte 14 Norte 0 -- -- 68
2018-01-19 09:00:00 8 10 Nordeste 14 Norte 0 -- -- 69
2018-01-19 08:00:00 7.1 10 Norte 15 Norte 0 -- -- 73
2018-01-19 07:00:00 7.3 9 Norte 18 Norte 0 -- -- 73
2018-01-19 06:00:00 7.9 9 Norte 12 Nordeste 0 -- -- 75
2018-01-19 05:00:00 9 6 Norte 12 Norte 0 -- -- 70
2018-01-19 04:00:00 9.8 3 Norte 5 Norte 0 -- -- 75
2018-01-19 03:00:00 10 0 Calma 10 Norte 0 -- -- 70
2018-01-19 02:00:00 9.9 3 Norte 8 Noroeste 0 -- -- 68
2018-01-19 01:00:00 9.6 3 Norte 11 Norte 0 -- -- 67
2018-01-19 00:00:00 10.1 4 Norte 12 Noroeste 0 -- -- 59
2018-01-18 23:00:00 10.2 2 Norte 10 Norte 0 -- -- 59
2018-01-18 22:00:00 10.7 2 Norte 16 Nordeste 0 -- -- 55
2018-01-18 21:00:00 10.7 4 Sudoeste 15 Oeste 0 -- -- 54
2018-01-18 20:00:00 11.1 8 Sudoeste 19 Oeste 0 -- -- 51
2018-01-18 19:00:00 11.4 9 Oeste 28 Noroeste 0 -- -- 50
2018-01-18 18:00:00 11.5 11 Sudoeste 26 Sur 0 -- -- 51
2018-01-18 17:00:00 12.9 9 Sudoeste 33 Sur 0 -- -- 50
2018-01-18 16:00:00 13.7 10 Sur 28 Este 0 -- -- 52
2018-01-18 15:00:00 13 8 Sudoeste 24 Sudeste 0 -- -- 54
2018-01-18 14:00:00 12.9 10 Sudoeste 33 Este 0 -- -- 54
2018-01-18 13:00:00 12.9 10 Sur 27 Sur 0 -- -- 56
2018-01-18 12:00:00 11.3 9 Oeste 41 Sudeste 0 -- -- 64
2018-01-18 11:00:00 10.6 10 Sur 33 Nordeste 0 -- -- 71
2018-01-18 10:00:00 10.3 13 Oeste 32 Oeste 0 -- -- 75
2018-01-18 09:00:00 10.4 13 Oeste 28 Oeste 0 -- -- 67
2018-01-18 08:00:00 10 10 Oeste 36 Sur 0 -- -- 72
2018-01-18 07:00:00 10.6 8 Oeste 26 Sudeste 0 -- -- 63
2018-01-18 06:00:00 11.2 8 Oeste 23 Este 0 -- -- 57
2018-01-18 05:00:00 11.7 8 Sudeste 34 Este 0 -- -- 55
2018-01-18 04:00:00 12.3 7 Sudeste 27 Norte 0 -- -- 53
2018-01-18 03:00:00 12.9 6 Noroeste 24 Este 0 -- -- 48
2018-01-18 02:00:00 12.7 8 Oeste 22 Sudoeste 0 -- -- 46
2018-01-18 01:00:00 12.1 5 Sudoeste 18 Oeste 0 -- -- 48
2018-01-18 00:00:00 11.6 5 Norte 20 Norte 0 -- -- 59
2018-01-17 23:00:00 10.7 9 Norte 21 Noroeste 0 -- -- 67
2018-01-17 22:00:00 9.8 0 Calma 4 Sudoeste 0 -- -- 80
2018-01-17 21:00:00 10.4 0 Calma 10 Nordeste 0 -- -- 78
2018-01-17 20:00:00 11.8 6 Nordeste 11 Norte 0 -- -- 73
2018-01-17 19:00:00 12.5 7 Norte 15 Norte 0 -- -- 70
2018-01-17 18:00:00 16.9 3 Noroeste 16 Oeste 0 -- -- 55
2018-01-17 17:00:00 17.6 9 Sudoeste 17 Sudoeste 0 -- -- 47
2018-01-17 16:00:00 17.4 12 Sudoeste 19 Sudoeste 0 -- -- 49
2018-01-17 15:00:00 18.3 10 Sudoeste 16 Sur 0 -- -- 56
2018-01-17 14:00:00 19.3 5 Sudoeste 15 Sudoeste 0 -- -- 36
2018-01-17 13:00:00 17.5 11 Sudoeste 17 Sudoeste 0 -- -- 46
2018-01-17 12:00:00 14.4 12 Nordeste 19 Norte 0 -- -- 54
2018-01-17 11:00:00 10.9 10 Nordeste 23 Norte 0 -- -- 65
2018-01-17 10:00:00 9.3 12 Norte 27 Norte 0 -- -- 70
2018-01-17 09:00:00 8.7 9 Norte 31 Norte 0 -- -- 73
2018-01-17 08:00:00 7.3 15 Norte 29 Norte 0 -- -- 80
2018-01-17 07:00:00 6.5 16 Norte 29 Norte 0 -- -- 81
2018-01-17 06:00:00 6.3 13 Norte 20 Norte 0 -- -- 83
2018-01-17 05:00:00 7 13 Norte 20 Norte 0 -- -- 80
2018-01-17 04:00:00 7.2 15 Nordeste 18 Nordeste 0 -- -- 79
2018-01-17 03:00:00 8.6 11 Norte 21 Norte 0 -- -- 73
2018-01-17 02:00:00 8.6 12 Norte 22 Norte 0 -- -- 72
2018-01-17 01:00:00 9.4 15 Norte 22 Norte 0 -- -- 69
2018-01-17 00:00:00 9.8 14 Norte 23 Norte 0 -- -- 68
2018-01-16 23:00:00 9.9 18 Norte 27 Norte 0 -- -- 67
2018-01-16 22:00:00 9.6 9 Norte 17 Norte 0 -- -- 72
2018-01-16 21:00:00 9.1 7 Nordeste 16 Norte 0 -- -- 75
2018-01-16 20:00:00 9.9 5 Nordeste 11 Nordeste 0 -- -- 71
2018-01-16 19:00:00 10.7 0 Calma 4 Sudoeste 0 -- -- 69
2018-01-16 18:00:00 13.2 3 Sudoeste 8 Sudoeste 0 -- -- 62
2018-01-16 17:00:00 13.9 5 Sudoeste 14 Sudoeste 0 -- -- 60
2018-01-16 16:00:00 13.5 8 Sudoeste 14 Sudoeste 0 -- -- 62
2018-01-16 15:00:00 13.2 9 Sudoeste 16 Sudoeste 0 -- -- 67
2018-01-16 14:00:00 12.6 7 Sudoeste 17 Sudoeste 0 -- -- 68
2018-01-16 13:00:00 11.8 6 Sudoeste 12 Sudoeste 0 -- -- 65
2018-01-16 12:00:00 10.6 5 Sudoeste 13 Sudoeste 0 -- -- 66
2018-01-16 11:00:00 6.7 9 Nordeste 15 Nordeste 0 -- -- 73
2018-01-16 10:00:00 3.3 12 Nordeste 16 Nordeste 0 -- -- 86
2018-01-16 09:00:00 4 5 Norte 13 Norte 0 -- -- 83
2018-01-16 08:00:00 2.8 11 Norte 15 Norte 0 -- -- 91
2018-01-16 07:00:00 2.4 10 Nordeste 18 Norte 0 -- -- 90
2018-01-16 06:00:00 2.7 14 Nordeste 15 Nordeste 0 -- -- 89
2018-01-16 05:00:00 3.4 12 Nordeste 15 Nordeste 0 -- -- 87
2018-01-16 04:00:00 4.6 5 Nordeste 10 Nordeste 0 -- -- 86
2018-01-16 03:00:00 4.2 8 Nordeste 13 Nordeste 0 -- -- 87
2018-01-16 02:00:00 5.7 3 Norte 10 Sudeste 0 -- -- 79
2018-01-16 01:00:00 6.2 4 Este 10 Nordeste 0 -- -- 78
2018-01-16 00:00:00 5 7 Nordeste 11 Nordeste 0 -- -- 88
2018-01-15 23:00:00 5.4 5 Nordeste 12 Nordeste 0 -- -- 89
2018-01-15 22:00:00 6.3 3 Nordeste 7 Norte 0 -- -- 85
2018-01-15 21:00:00 6.3 4 Norte 12 Norte 0 -- -- 85
2018-01-15 20:00:00 6.8 2 Norte 8 Nordeste 0 -- -- 82
2018-01-15 19:00:00 7.6 3 Oeste 12 Norte 0 -- -- 79
2018-01-15 18:00:00 9.2 0 Calma 6 Este 0 -- -- 76
2018-01-15 17:00:00 9.7 0 Calma 8 Sudoeste 0 -- -- 72
2018-01-15 16:00:00 10.8 3 Noroeste 14 Sudoeste 0 -- -- 65
2018-01-15 15:00:00 10.7 5 Sudoeste 16 Sudoeste 0 -- -- 65
2018-01-15 14:00:00 11.7 3 Sudoeste 17 Oeste 0 -- -- 58
2018-01-15 13:00:00 10.1 6 Sudoeste 16 Sudoeste 0 -- -- 60
2018-01-15 12:00:00 8.5 4 Norte 15 Norte 0 -- -- 69
2018-01-15 11:00:00 5.4 9 Norte 18 Norte 0 -- -- 80
2018-01-15 10:00:00 3.1 8 Nordeste 21 Norte 0 -- -- 87
2018-01-15 09:00:00 2.4 5 Norte 23 Norte 0 -- -- 89
2018-01-15 08:00:00 2.4 8 Norte 22 Norte 0 -- -- 89
2018-01-15 07:00:00 2.6 10 Norte 22 Norte 0 -- -- 88
2018-01-15 06:00:00 2.9 11 Norte 22 Norte 0 -- -- 88
2018-01-15 05:00:00 2.6 7 Norte 27 Noroeste 0 -- -- 91
2018-01-15 04:00:00 2.7 5 Norte 24 Norte 0 -- -- 89
2018-01-15 03:00:00 3.8 4 Norte 16 Nordeste 0 -- -- 83
2018-01-15 02:00:00 4.4 5 Nordeste 23 Nordeste 0 -- -- 81
2018-01-15 01:00:00 4.4 7 Nordeste 18 Nordeste 0 -- -- 83
2018-01-15 00:00:00 3.5 4 Norte 10 Norte 0 -- -- 89
2018-01-14 23:00:00 4.8 3 Nordeste 6 Nordeste 0 -- -- 83
2018-01-14 22:00:00 5.1 3 Nordeste 9 Norte 0 -- -- 81
2018-01-14 21:00:00 5.1 3 Nordeste 12 Nordeste 0 -- -- 80
2018-01-14 20:00:00 5.3 3 Nordeste 26 Norte 0 -- -- 83
2018-01-14 19:00:00 5.7 7 Nordeste 26 Noroeste 0 -- -- 84
2018-01-14 18:00:00 6.4 6 Norte 21 Este 0 -- -- 81
2018-01-14 17:00:00 7.9 7 Noroeste 20 Norte 0 -- -- 75
2018-01-14 16:00:00 7.7 8 Norte 18 Noroeste 0 -- -- 87
2018-01-14 15:00:00 7.3 3 Sudoeste 9 Norte 0 -- -- 92
2018-01-14 14:00:00 6.7 2 Este 6 Norte 0.2 -- -- 94
2018-01-14 13:00:00 6.2 0 Calma 6 Norte 1.4 -- -- 94
2018-01-14 12:00:00 6.2 3 Norte 11 Norte 1.6 -- -- 92
2018-01-14 11:00:00 6.4 3 Norte 13 Norte 0.6 -- -- 92
2018-01-14 10:00:00 6.8 3 Norte 14 Oeste 0.6 -- -- 90
2018-01-14 09:00:00 6.9 3 Noroeste 14 Sudoeste 0.2 -- -- 87
2018-01-14 08:00:00 7.1 3 Oeste 15 Sudoeste 0 -- -- 87
2018-01-14 07:00:00 6.8 3 Oeste 15 Noroeste 0 -- -- 87
2018-01-14 06:00:00 6.6 2 Este 15 Nordeste 0 -- -- 88
2018-01-14 05:00:00 6.5 4 Nordeste 16 Norte 0 -- -- 86
2018-01-14 04:00:00 6.6 5 Nordeste 20 Noroeste 0 -- -- 86
2018-01-14 03:00:00 6.6 6 Norte 21 Noroeste 0 -- -- 88
2018-01-14 02:00:00 6.9 6 Norte 28 Norte 0 -- -- 89
2018-01-14 01:00:00 7 6 Norte 23 Noroeste 0 -- -- 90
2018-01-14 00:00:00 7.4 5 Oeste 22 Noroeste 0 -- -- 86
2018-01-13 23:00:00 7.2 4 Noroeste 19 Noroeste 0 -- -- 86
2018-01-13 22:00:00 7.5 6 Norte 22 Oeste 0 -- -- 81
2018-01-13 21:00:00 7.8 9 Norte 29 Nordeste 0 -- -- 77
2018-01-13 20:00:00 7.6 6 Nordeste 35 Norte 0 -- -- 80
2018-01-13 19:00:00 8.2 10 Norte 39 Norte 0 -- -- 85
2018-01-13 18:00:00 8.9 4 Noroeste 17 Noroeste 0 -- -- 87
2018-01-13 17:00:00 8.9 4 Noroeste 21 Noroeste 0.2 -- -- 89
2018-01-13 16:00:00 8.5 5 Norte 28 Sudoeste 1.4 -- -- 89
2018-01-13 15:00:00 8.4 10 Sudoeste 23 Sudoeste 0.8 -- -- 95
2018-01-13 14:00:00 7.9 3 Sur 19 Sudoeste 0.2 -- -- 92
2018-01-13 13:00:00 8.2 10 Sudoeste 28 Sur 0 -- -- 88
2018-01-13 12:00:00 8.2 5 Oeste 20 Sudoeste 0 -- -- 84
2018-01-13 11:00:00 7.8 0 Calma 15 Sudoeste 0 -- -- 84
2018-01-13 10:00:00 7.3 4 Sudoeste 9 Sudoeste 0 -- -- 82
2018-01-13 09:00:00 5.9 0 Calma 5 Sur 0 -- -- 73
2018-01-13 08:00:00 5.8 2 Sudeste 4 Sur 0 -- -- 69
2018-01-13 07:00:00 5.6 5 Nordeste 13 Norte 0 -- -- 68
2018-01-13 06:00:00 5.5 8 Nordeste 12 Nordeste 0 -- -- 68
2018-01-13 05:00:00 5.4 5 Norte 14 Norte 0 -- -- 69
2018-01-13 04:00:00 5.8 6 Nordeste 11 Norte 0 -- -- 69
2018-01-13 03:00:00 6.1 4 Nordeste 9 Norte 0 -- -- 68
2018-01-13 02:00:00 5.8 6 Nordeste 9 Nordeste 0 -- -- 70
2018-01-13 01:00:00 6 0 Calma 10 Nordeste 0 -- -- 72
2018-01-13 00:00:00 6.7 0 Calma 4 Sur 0 -- -- 68
2018-01-12 23:00:00 7.3 0 Calma 5 Nordeste 0 -- -- 61
2018-01-12 22:00:00 7 5 Norte 10 Nordeste 0 -- -- 63
2018-01-12 21:00:00 7.1 6 Nordeste 9 Nordeste 0 -- -- 64
2018-01-12 20:00:00 7.4 3 Sur 7 Sudoeste 0 -- -- 55
2018-01-12 19:00:00 8.1 0 Calma 4 Sur 0 -- -- 58
2018-01-12 18:00:00 10.1 0 Calma 8 Sur 0 -- -- 57
2018-01-12 17:00:00 11.5 6 Sudoeste 12 Sur 0 -- -- 50
2018-01-12 16:00:00 12.2 7 Sudoeste 18 Sudoeste 0 -- -- 50
2018-01-12 15:00:00 12 10 Sudoeste 19 Sudoeste 0 -- -- 51
2018-01-12 14:00:00 11.8 10 Sudoeste 18 Sudoeste 0 -- -- 61
2018-01-12 13:00:00 11.4 2 Este 12 Norte 0 -- -- 50
2018-01-12 12:00:00 8.8 4 Norte 12 Nordeste 0 -- -- 61
2018-01-12 11:00:00 6.6 7 Norte 17 Norte 0 -- -- 73
2018-01-12 10:00:00 4.4 8 Norte 15 Norte 0 -- -- 81
2018-01-12 09:00:00 4.1 11 Norte 17 Norte 0 -- -- 83
2018-01-12 08:00:00 3.5 5 Nordeste 11 Norte 0 -- -- 90
2018-01-12 07:00:00 3 4 Nordeste 12 Nordeste 0 -- -- 92
2018-01-12 06:00:00 3.7 4 Nordeste 13 Este 0 -- -- 91
2018-01-12 05:00:00 3.9 3 Nordeste 9 Nordeste 0 -- -- 90
2018-01-12 04:00:00 4.4 6 Nordeste 11 Este 0 -- -- 89
2018-01-12 03:00:00 5.1 4 Nordeste 14 Este 0 -- -- 89
2018-01-12 02:00:00 5.6 6 Nordeste 11 Norte 0 -- -- 89
2018-01-12 01:00:00 6.3 5 Norte 11 Norte 0 -- -- 86
2018-01-12 00:00:00 6.8 4 Norte 13 Nordeste 0 -- -- 86
2018-01-11 23:00:00 7.5 5 Noroeste 27 Noroeste 0 -- -- 84
2018-01-11 22:00:00 8.1 9 Norte 33 Noroeste 0 -- -- 83
2018-01-11 21:00:00 8.3 7 Sudoeste 29 Noroeste 0 -- -- 83
2018-01-11 20:00:00 8.6 9 Oeste 27 Norte 0 -- -- 81
2018-01-11 19:00:00 8.7 8 Norte 25 Oeste 0 -- -- 79
2018-01-11 18:00:00 9.2 10 Oeste 38 Este 0 -- -- 77
2018-01-11 17:00:00 9.3 6 Oeste 28 Nordeste 0 -- -- 77
2018-01-11 16:00:00 9.4 9 Noroeste 32 Oeste 0 -- -- 76
2018-01-11 15:00:00 9.2 7 Norte 26 Nordeste 0 -- -- 79
2018-01-11 14:00:00 8.7 8 Oeste 33 Norte 0 -- -- 79
2018-01-11 13:00:00 9.1 10 Oeste 47 Norte 0 -- -- 77
2018-01-11 12:00:00 9 12 Norte 35 Norte 0 -- -- 77
2018-01-11 11:00:00 7.9 14 Norte 33 Norte 0 -- -- 77
2018-01-11 10:00:00 5.2 5 Nordeste 13 Este 0 -- -- 82
2018-01-11 09:00:00 4.4 5 Nordeste 12 Nordeste 0 -- -- 82
2018-01-11 08:00:00 4.6 4 Nordeste 12 Nordeste 0 -- -- 81
2018-01-11 07:00:00 4.8 5 Nordeste 19 Norte 0 -- -- 86
2018-01-11 06:00:00 5.5 5 Nordeste 21 Noroeste 0 -- -- 86
2018-01-11 05:00:00 6.7 12 Norte 30 Norte 0 -- -- 83
2018-01-11 04:00:00 7.3 12 Norte 31 Nordeste 0 -- -- 82
2018-01-11 03:00:00 7.6 6 Oeste 35 Noroeste 0 -- -- 85
2018-01-11 02:00:00 7.9 13 Norte 30 Este 0 -- -- 86
2018-01-11 01:00:00 8.3 9 Norte 30 Norte 0 -- -- 87
2018-01-11 00:00:00 8.9 6 Oeste 34 Nordeste 0 -- -- 87
2018-01-10 23:00:00 9.6 7 Norte 40 Sudoeste 0 -- -- 83
2018-01-10 22:00:00 10.9 10 Oeste 25 Oeste 0.2 -- -- 87
2018-01-10 21:00:00 10.9 7 Oeste 31 Noroeste 0 -- -- 85
2018-01-10 20:00:00 10.8 10 Oeste 26 Norte 0 -- -- 84
2018-01-10 19:00:00 10.8 7 Noroeste 31 Noroeste 0 -- -- 84
2018-01-10 18:00:00 11.4 10 Noroeste 24 Noroeste 0 -- -- 82
2018-01-10 17:00:00 11.1 6 Noroeste 23 Norte 0 -- -- 88
2018-01-10 16:00:00 10.7 5 Norte 19 Norte 0.4 -- -- 90
2018-01-10 15:00:00 11.8 6 Oeste 20 Norte 0 -- -- 80
2018-01-10 14:00:00 12.6 9 Oeste 25 Sudoeste 0 -- -- 74
2018-01-10 13:00:00 12.2 5 Norte 24 Norte 0 -- -- 80
2018-01-10 12:00:00 12 9 Norte 28 Nordeste 0 -- -- 78
2018-01-10 11:00:00 10.4 10 Norte 36 Norte 0 -- -- 79
2018-01-10 10:00:00 9 13 Norte 33 Nordeste 0 -- -- 81
2018-01-10 09:00:00 8.4 10 Norte 28 Norte 0 -- -- 84
2018-01-10 08:00:00 8.4 10 Norte 31 Norte 0 -- -- 89
2018-01-10 07:00:00 8.6 5 Oeste 24 Norte 0.2 -- -- 95
2018-01-10 06:00:00 8.8 3 Noroeste 20 Norte 0 -- -- 96
2018-01-10 05:00:00 8.6 6 Norte 33 Noroeste 0 -- -- 98
2018-01-10 04:00:00 9.2 5 Oeste 28 Noroeste 0 -- -- 98
2018-01-10 03:00:00 9.1 3 Sudoeste 15 Sur 1.4 -- -- 98
2018-01-10 02:00:00 9 6 Sudoeste 18 Sur 5.2 -- -- 98
2018-01-10 01:00:00 8.6 9 Sudoeste 16 Sudoeste 4.2 -- -- 98
2018-01-10 00:00:00 8.4 8 Sudoeste 16 Sur 0 -- -- 98
2018-01-09 23:00:00 8.1 7 Sudoeste 14 Sur 0.2 -- -- 98
2018-01-09 22:00:00 8.1 3 Sudoeste 19 Sudoeste 0.2 -- -- 97
2018-01-09 21:00:00 8.4 10 Sudoeste 28 Sur 1 -- -- 97
2018-01-09 20:00:00 8.3 12 Sudoeste 26 Sur 1.4 -- -- 97
2018-01-09 19:00:00 8.2 12 Sudoeste 26 Sudoeste 1.4 -- -- 97
2018-01-09 18:00:00 8 10 Sudoeste 16 Sudoeste 1.6 -- -- 96
2018-01-09 17:00:00 7.9 10 Sudoeste 19 Sudoeste 2.4 -- -- 96
2018-01-09 16:00:00 7.8 5 Sur 11 Sur 0.8 -- -- 94
2018-01-09 15:00:00 7.8 4 Sur 11 Sur 0.6 -- -- 92
2018-01-09 14:00:00 7.7 4 Sur 15 Sudoeste 0 -- -- 91
2018-01-09 13:00:00 7.2 9 Sudoeste 20 Sudoeste 0 -- -- 90
2018-01-09 12:00:00 7.3 4 Sudoeste 21 Sudoeste 0 -- -- 89
2018-01-09 11:00:00 6.6 8 Sudoeste 20 Sudoeste 0 -- -- 90
2018-01-09 10:00:00 5.8 4 Sudoeste 14 Noroeste 0 -- -- 86
2018-01-09 09:00:00 4.7 6 Norte 21 Norte 0 -- -- 84
2018-01-09 08:00:00 4.3 5 Noroeste 13 Noroeste 0 -- -- 88
2018-01-09 07:00:00 3.2 5 Norte 13 Noroeste 0 -- -- 94
2018-01-09 06:00:00 1.7 8 Norte 13 Norte 0 -- -- 97
2018-01-09 05:00:00 1.4 10 Norte 15 Norte 0 -- -- 98
2018-01-09 04:00:00 0.8 10 Norte 18 Nordeste 0 -- -- 97
2018-01-09 03:00:00 0.4 9 Norte 15 Norte 0.2 -- -- 97
2018-01-09 02:00:00 0.2 10 Nordeste 15 Norte 0 -- -- 97
2018-01-09 01:00:00 0.4 10 Nordeste 13 Nordeste 0 -- -- 96
2018-01-09 00:00:00 2 7 Nordeste 12 Norte 0 -- -- 96
2018-01-08 23:00:00 2.4 5 Norte 8 Norte 0 -- -- 97
2018-01-08 22:00:00 2.6 5 Nordeste 9 Nordeste 0 -- -- 96
2018-01-08 21:00:00 3.3 5 Norte 8 Norte 0 -- -- 95
2018-01-08 20:00:00 4 4 Norte 8 Norte 0 -- -- 93
2018-01-08 19:00:00 4.4 0 Calma 4 Sudoeste 0 -- -- 91
2018-01-08 18:00:00 5.2 0 Calma 6 Norte 0 -- -- 89
2018-01-08 17:00:00 5.5 2 Norte 10 Noroeste 0 -- -- 93
2018-01-08 16:00:00 5.1 3 Norte 10 Norte 0 -- -- 97
2018-01-08 15:00:00 5 3 Nordeste 9 Nordeste 0 -- -- 97
2018-01-08 14:00:00 4.2 0 Calma 6 Este 0 -- -- 97
2018-01-08 13:00:00 3.5 3 Sudoeste 13 Sudoeste 0.2 -- -- 97
2018-01-08 12:00:00 3 3 Sudoeste 18 Sudoeste 1 -- -- 97
2018-01-08 11:00:00 2.3 5 Sudoeste 19 Sudeste 2.6 -- -- 97
2018-01-08 10:00:00 2.1 13 Sudoeste 42 Sur 7.2 -- -- 95
2018-01-08 09:00:00 4 14 Sudoeste 29 Sur 6.6 -- -- 96
2018-01-08 08:00:00 4.4 5 Sudoeste 21 Sudoeste 2 -- -- 95
2018-01-08 07:00:00 4.4 8 Sudoeste 18 Sudoeste 1.8 -- -- 94
2018-01-08 06:00:00 4.3 4 Sudoeste 10 Sudoeste 0 -- -- 92
2018-01-08 05:00:00 4.3 4 Sudoeste 12 Sur 0 -- -- 91
2018-01-08 04:00:00 4.2 4 Sur 16 Sudoeste 0 -- -- 91
2018-01-08 03:00:00 4.2 8 Sudoeste 23 Sudoeste 0 -- -- 91
2018-01-08 02:00:00 4.2 5 Sur 14 Sudoeste 0 -- -- 92
2018-01-08 01:00:00 4.3 4 Sudoeste 10 Sudoeste 0 -- -- 89
2018-01-08 00:00:00 3.9 0 Calma 12 Noroeste 0 -- -- 86
2018-01-07 23:00:00 4.7 0 Calma 17 Noroeste 0 -- -- 82
2018-01-07 22:00:00 4.9 6 Sudoeste 16 Noroeste 0 -- -- 81
2018-01-07 21:00:00 5 2 Nordeste 8 Nordeste 0 -- -- 81
2018-01-07 20:00:00 4.8 3 Norte 11 Norte 0 -- -- 79
2018-01-07 19:00:00 5 2 Norte 19 Oeste 0 -- -- 74
2018-01-07 18:00:00 5.5 9 Sudoeste 28 Sudoeste 0 -- -- 76
2018-01-07 17:00:00 6.1 10 Sudoeste 20 Sudoeste 0 -- -- 71
2018-01-07 16:00:00 6.6 11 Sudoeste 24 Sudoeste 0 -- -- 67
2018-01-07 15:00:00 6.7 8 Oeste 22 Norte 0 -- -- 67
2018-01-07 14:00:00 6.1 6 Oeste 20 Nordeste 0 -- -- 65
2018-01-07 13:00:00 6.3 5 Sudoeste 14 Sudoeste 0 -- -- 68
2018-01-07 12:00:00 3.4 4 Norte 10 Nordeste 0 -- -- 77
2018-01-07 11:00:00 2.4 3 Norte 11 Nordeste 0 -- -- 79
2018-01-07 10:00:00 0.3 6 Nordeste 27 Norte 0 -- -- 87
2018-01-07 09:00:00 1.5 17 Norte 29 Noroeste 0 -- -- 81
2018-01-07 08:00:00 0.3 11 Norte 22 Norte 0 -- -- 88
2018-01-07 07:00:00 1.4 5 Norte 17 Norte 0 -- -- 81
2018-01-07 06:00:00 1.6 5 Norte 14 Norte 0 -- -- 80
2018-01-07 05:00:00 1.2 5 Nordeste 22 Noroeste 0 -- -- 83
2018-01-07 04:00:00 2.6 8 Noroeste 23 Noroeste 0 -- -- 76
2018-01-07 03:00:00 3.5 5 Norte 22 Norte 0 -- -- 70
2018-01-07 02:00:00 3.6 9 Norte 25 Noroeste 0 -- -- 70
2018-01-07 01:00:00 3.8 9 Norte 25 Norte 0 -- -- 69
2018-01-07 00:00:00 3.3 6 Norte 25 Norte 0 -- -- 71
2018-01-06 23:00:00 3.3 6 Norte 19 Norte 0 -- -- 70
2018-01-06 22:00:00 3.4 3 Nordeste 14 Norte 0 -- -- 69
2018-01-06 21:00:00 3.9 3 Norte 16 Norte 0 -- -- 71
2018-01-06 20:00:00 4.6 4 Norte 25 Norte 0 -- -- 73
2018-01-06 19:00:00 5.2 6 Oeste 32 Nordeste 0 -- -- 73
2018-01-06 18:00:00 6.5 8 Noroeste 22 Norte 0 -- -- 70
2018-01-06 17:00:00 7 8 Noroeste 28 Noroeste 0 -- -- 68
2018-01-06 16:00:00 7.1 9 Oeste 32 Noroeste 0 -- -- 70
2018-01-06 15:00:00 7.3 17 Noroeste 45 Noroeste 0 -- -- 66
2018-01-06 14:00:00 6.9 13 Norte 44 Noroeste 0 -- -- 75
2018-01-06 13:00:00 5.6 12 Norte 36 Noroeste 0 -- -- 83
2018-01-06 12:00:00 5.7 10 Oeste 37 Norte 0 -- -- 86
2018-01-06 11:00:00 4.6 13 Norte 35 Norte 0 -- -- 87
2018-01-06 10:00:00 3.8 11 Nordeste 42 Norte 0 -- -- 90
2018-01-06 09:00:00 3.3 11 Norte 42 Norte 0 -- -- 94
2018-01-06 08:00:00 4.2 14 Norte 32 Noroeste 1.8 -- -- 96
2018-01-06 07:00:00 5.9 9 Sudoeste 42 Sudoeste 6.4 -- -- 96
2018-01-06 06:00:00 6.9 19 Sudoeste 46 Sur 2.2 -- -- 96
2018-01-06 05:00:00 6.7 14 Sudoeste 39 Sudoeste 2.8 -- -- 96
2018-01-06 04:00:00 6.5 12 Sur 46 Sudoeste 7.4 -- -- 95
2018-01-06 03:00:00 8.8 19 Sudoeste 37 Sudoeste 0.2 -- -- 93
2018-01-06 02:00:00 8.9 18 Sudoeste 32 Sur 0 -- -- 95
2018-01-06 01:00:00 9.4 15 Sudoeste 26 Sur 2 -- -- 94
2018-01-06 00:00:00 9.6 12 Sudoeste 23 Sudoeste 0 -- -- 93
2018-01-05 23:00:00 9.7 13 Sudoeste 26 Sudoeste 0 -- -- 91
2018-01-05 22:00:00 10.1 17 Sudoeste 29 Sudoeste 0 -- -- 89
2018-01-05 21:00:00 9.9 8 Sur 27 Sur 0 -- -- 89
2018-01-05 20:00:00 9.9 10 Sur 24 Sudoeste 0 -- -- 89
2018-01-05 19:00:00 10 14 Sudoeste 37 Oeste 0 -- -- 87
2018-01-05 18:00:00 10.3 17 Sudoeste 33 Sudoeste 0 -- -- 86
2018-01-05 17:00:00 10.6 18 Sudoeste 31 Sudoeste 0 -- -- 85
2018-01-05 16:00:00 10.7 12 Sudoeste 39 Sudoeste 0 -- -- 87
2018-01-05 15:00:00 12.5 15 Sudoeste 38 Sudoeste 0 -- -- 67
2018-01-05 14:00:00 12.5 18 Sudoeste 40 Sudoeste 0 -- -- 68
2018-01-05 13:00:00 11.9 10 Noroeste 34 Sur 0 -- -- 71
2018-01-05 12:00:00 11.5 8 Noroeste 20 Norte 0 -- -- 74
2018-01-05 11:00:00 11.3 9 Noroeste 19 Oeste 0 -- -- 77
2018-01-05 10:00:00 10.3 5 Oeste 20 Noroeste 0 -- -- 85
2018-01-05 09:00:00 9.9 7 Noroeste 20 Noroeste 0 -- -- 86
2018-01-05 08:00:00 9.9 6 Noroeste 21 Sur 0 -- -- 85
2018-01-05 07:00:00 9.8 8 Norte 25 Nordeste 0 -- -- 83
2018-01-05 06:00:00 9.6 7 Nordeste 31 Este 0 -- -- 85
2018-01-05 05:00:00 9.6 15 Norte 37 Norte 0 -- -- 82
2018-01-05 04:00:00 9.4 19 Norte 40 Norte 0 -- -- 84
2018-01-05 03:00:00 9.2 18 Norte 38 Norte 0 -- -- 85
2018-01-05 02:00:00 9.1 22 Norte 42 Norte 0 -- -- 87
2018-01-05 01:00:00 9.2 24 Norte 35 Norte 0 -- -- 89
2018-01-05 00:00:00 9.4 19 Norte 35 Norte 0 -- -- 88
2018-01-04 23:00:00 9.3 13 Norte 36 Norte 0 -- -- 88
2018-01-04 22:00:00 9.6 17 Norte 37 Norte 0 -- -- 88
2018-01-04 21:00:00 9.4 12 Nordeste 42 Norte 0 -- -- 90
2018-01-04 20:00:00 9.9 26 Norte 37 Norte 0 -- -- 91
2018-01-04 19:00:00 10.7 17 Norte 35 Norte 0 -- -- 87
2018-01-04 18:00:00 12 19 Norte 32 Norte 0 -- -- 82
2018-01-04 17:00:00 13.1 17 Norte 37 Nordeste 0 -- -- 79
2018-01-04 16:00:00 14.1 24 Norte 35 Norte 0 -- -- 75
2018-01-04 15:00:00 16 22 Norte 33 Norte 0 -- -- 67
2018-01-04 14:00:00 17.7 16 Norte 28 Norte 0 -- -- 58
2018-01-04 13:00:00 17.2 8 Norte 17 Nordeste 0 -- -- 63
2018-01-04 12:00:00 14.6 10 Norte 18 Norte 0 -- -- 67
2018-01-04 11:00:00 11.9 15 Norte 20 Norte 0 -- -- 75
2018-01-04 10:00:00 9.1 16 Norte 23 Norte 0 -- -- 84
2018-01-04 09:00:00 8.4 17 Nordeste 20 Nordeste 0 -- -- 87
2018-01-04 08:00:00 8.2 14 Nordeste 20 Norte 0 -- -- 89
2018-01-04 07:00:00 8.2 14 Norte 20 Norte 0 -- -- 89
2018-01-04 06:00:00 7.9 14 Norte 21 Norte 0 -- -- 93
2018-01-04 05:00:00 8 13 Norte 28 Norte 0 -- -- 92
2018-01-04 04:00:00 8.4 14 Norte 27 Norte 0 -- -- 91
2018-01-04 03:00:00 8.6 16 Norte 27 Norte 0 -- -- 89
2018-01-04 02:00:00 8.9 15 Norte 26 Norte 0 -- -- 87
2018-01-04 01:00:00 9.8 13 Norte 23 Nordeste 0 -- -- 86
2018-01-04 00:00:00 10 11 Norte 23 Norte 0 -- -- 86
2018-01-03 23:00:00 10.7 15 Nordeste 20 Norte 0 -- -- 84
2018-01-03 22:00:00 11.4 9 Nordeste 27 Norte 0 -- -- 80
2018-01-03 21:00:00 13 12 Norte 35 Norte 0 -- -- 72
2018-01-03 20:00:00 14.3 16 Norte 39 Norte 0 -- -- 65
2018-01-03 19:00:00 14.8 21 Norte 38 Norte 0 -- -- 62
2018-01-03 18:00:00 16.5 8 Norte 28 Norte 0 -- -- 55
2018-01-03 17:00:00 18.1 10 Norte 32 Norte 0 -- -- 50
2018-01-03 16:00:00 18 10 Norte 31 Norte 0 -- -- 55
2018-01-03 15:00:00 17.2 17 Norte 32 Norte 0 -- -- 57
2018-01-03 14:00:00 16.3 18 Norte 31 Norte 0 -- -- 61
2018-01-03 13:00:00 14.9 8 Norte 21 Nordeste 0 -- -- 68
2018-01-03 12:00:00 13.2 11 Nordeste 27 Norte 0 -- -- 74
2018-01-03 11:00:00 10.6 10 Nordeste 25 Norte 0 -- -- 83
2018-01-03 10:00:00 7.9 13 Nordeste 32 Nordeste 0 -- -- 93
2018-01-03 09:00:00 7.6 13 Norte 29 Nordeste 0 -- -- 91
2018-01-03 08:00:00 7.4 15 Nordeste 25 Norte 0 -- -- 90
2018-01-03 07:00:00 7.8 14 Nordeste 23 Norte 0 -- -- 89
2018-01-03 06:00:00 8.4 14 Nordeste 21 Norte 0 -- -- 87
2018-01-03 05:00:00 9.2 9 Norte 22 Norte 0 -- -- 83
2018-01-03 04:00:00 10.3 11 Norte 30 Noroeste 0 -- -- 80
2018-01-03 03:00:00 9.6 13 Norte 24 Norte 0 -- -- 82
2018-01-03 02:00:00 10.3 7 Norte 18 Norte 0 -- -- 80
2018-01-03 01:00:00 10.4 10 Nordeste 31 Norte 0 -- -- 79
2018-01-03 00:00:00 10.8 14 Norte 31 Norte 0 -- -- 77
2018-01-02 23:00:00 10.6 11 Norte 26 Norte 0 -- -- 77
2018-01-02 22:00:00 11.2 13 Norte 27 Norte 0 -- -- 75
2018-01-02 21:00:00 11 10 Norte 33 Noroeste 0 -- -- 73
2018-01-02 20:00:00 11.1 11 Norte 29 Noroeste 0 -- -- 71
2018-01-02 19:00:00 11.8 7 Nordeste 18 Norte 0 -- -- 67
2018-01-02 18:00:00 14.4 6 Nordeste 23 Norte 0 -- -- 59
2018-01-02 17:00:00 16.5 11 Norte 24 Norte 0 -- -- 52
2018-01-02 16:00:00 17.7 10 Nordeste 27 Noroeste 0 -- -- 46
2018-01-02 15:00:00 18.4 9 Norte 26 Nordeste 0 -- -- 44
2018-01-02 14:00:00 18.1 8 Norte 20 Nordeste 0 -- -- 44
2018-01-02 13:00:00 17.8 5 Norte 15 Norte 0 -- -- 35
2018-01-02 12:00:00 16.1 5 Norte 12 Nordeste 0 -- -- 35
2018-01-02 11:00:00 13.7 6 Nordeste 11 Norte 0 -- -- 33
2018-01-02 10:00:00 10 8 Nordeste 12 Norte 0 -- -- 42
2018-01-02 09:00:00 10 7 Nordeste 12 Norte 0 -- -- 42
2018-01-02 08:00:00 10.4 5 Nordeste 13 Norte 0 -- -- 41
2018-01-02 07:00:00 9.9 9 Norte 21 Noroeste 0 -- -- 44
2018-01-02 06:00:00 7.6 10 Nordeste 19 Norte 0 -- -- 63
2018-01-02 05:00:00 7.7 9 Nordeste 22 Nordeste 0 -- -- 67
2018-01-02 04:00:00 7.8 13 Norte 23 Norte 0 -- -- 67
2018-01-02 03:00:00 7.1 12 Norte 25 Norte 0 -- -- 65
2018-01-02 02:00:00 7.6 8 Nordeste 21 Nordeste 0 -- -- 59
2018-01-02 01:00:00 8 13 Norte 28 Norte 0 -- -- 56
2018-01-02 00:00:00 8.1 13 Norte 26 Norte 0 -- -- 50
2018-01-01 23:00:00 9.2 11 Norte 20 Norte 0 -- -- 39
2018-01-01 22:00:00 9.6 8 Norte 31 Noroeste 0 -- -- 37
2018-01-01 21:00:00 10.7 9 Norte 23 Norte 0 -- -- 27
2018-01-01 20:00:00 10.3 9 Norte 22 Norte 0 -- -- 34
2018-01-01 19:00:00 11.2 5 Nordeste 15 Norte 0 -- -- 30
2018-01-01 18:00:00 13.1 5 Nordeste 23 Norte 0 -- -- 45
2018-01-01 17:00:00 16 5 Norte 15 Nordeste 0 -- -- 26
2018-01-01 16:00:00 17 6 Norte 14 Nordeste 0 -- -- 24
2018-01-01 15:00:00 17.8 3 Sudeste 14 Norte 0 -- -- 26
2018-01-01 14:00:00 16.7 5 Norte 13 Norte 0 -- -- 31
2018-01-01 13:00:00 14.5 5 Norte 13 Norte 0 -- -- 40
2018-01-01 12:00:00 12 8 Norte 14 Nordeste 0 -- -- 45
2018-01-01 11:00:00 8.3 12 Norte 23 Norte 0 -- -- 58
2018-01-01 10:00:00 6.6 13 Norte 20 Norte 0 -- -- 61
2018-01-01 09:00:00 7.4 13 Norte 17 Norte 0 -- -- 55
2018-01-01 08:00:00 6.5 13 Norte 19 Norte 0 -- -- 68
2018-01-01 07:00:00 6.5 13 Norte 21 Norte 0 -- -- 75
2018-01-01 06:00:00 7.4 9 Norte 19 Norte 0 -- -- 72
2018-01-01 05:00:00 7.7 5 Norte 27 Norte 0 -- -- 70
2018-01-01 04:00:00 8.2 9 Nordeste 24 Norte 0 -- -- 67
2018-01-01 03:00:00 9 7 Norte 34 Norte 0 -- -- 66
2018-01-01 02:00:00 10.7 11 Norte 30 Este 0 -- -- 52
2018-01-01 01:00:00 10.5 5 Norte 18 Este 0 -- -- 75
2018-01-01 00:00:00 11.5 10 Nordeste 29 Nordeste 0 -- -- 78
2017-12-31 23:00:00 11.8 9 Noroeste 29 Noroeste 0 -- -- 87
2017-12-31 22:00:00 12 9 Oeste 27 Noroeste 0 -- -- 85
2017-12-31 21:00:00 12.1 10 Oeste 43 Noroeste 0 -- -- 83
2017-12-31 20:00:00 12 10 Noroeste 21 Noroeste 0 -- -- 84
2017-12-31 19:00:00 11.9 8 Noroeste 26 Norte 0 -- -- 85
2017-12-31 18:00:00 11.9 9 Noroeste 31 Norte 0 -- -- 79
2017-12-31 17:00:00 12.6 10 Noroeste 33 Noroeste 0 -- -- 75
2017-12-31 16:00:00 13.4 12 Noroeste 36 Norte 0 -- -- 73
2017-12-31 15:00:00 12.9 9 Oeste 31 Norte 0 -- -- 75
2017-12-31 14:00:00 13.5 11 Noroeste 35 Noroeste 0 -- -- 75
2017-12-31 13:00:00 12.3 9 Noroeste 22 Noroeste 0 -- -- 79
2017-12-31 12:00:00 12.4 8 Norte 23 Norte 0 -- -- 81
2017-12-31 11:00:00 11.7 9 Norte 26 Nordeste 0 -- -- 88
2017-12-31 10:00:00 11.1 6 Norte 16 Norte 0 -- -- 87
2017-12-31 09:00:00 9.2 5 Nordeste 12 Norte 0 -- -- 88
2017-12-31 08:00:00 9.6 5 Norte 26 Sur 0 -- -- 82
2017-12-31 07:00:00 10.6 8 Sur 13 Sur 0 -- -- 85
2017-12-31 06:00:00 10.8 3 Sur 12 Nordeste 0 -- -- 74
2017-12-31 05:00:00 11.4 3 Nordeste 15 Norte 0 -- -- 67
2017-12-31 04:00:00 10.7 10 Nordeste 13 Norte 0 -- -- 74
2017-12-31 03:00:00 13.3 6 Sur 12 Sur 0 -- -- 58
2017-12-31 02:00:00 12.4 4 Oeste 14 Oeste 0 -- -- 62
2017-12-31 01:00:00 11.7 2 Nordeste 15 Nordeste 0 -- -- 83